createdAt,value
2023-02-13T00:04:01.177Z,52.33
2023-02-13T00:09:05.172Z,45.80
2023-02-13T00:14:08.429Z,43.75
2023-02-13T00:19:10.240Z,47.80
2023-02-13T00:24:12.160Z,45.00
2023-02-13T00:29:14.031Z,44.97
2023-02-13T00:34:15.879Z,46.05
2023-02-13T00:39:17.682Z,47.58
2023-02-13T00:44:19.696Z,46.47
2023-02-13T00:49:21.662Z,50.90
2023-02-13T00:54:23.516Z,53.50
2023-02-13T00:59:25.362Z,50.97
2023-02-13T01:04:27.271Z,52.13
2023-02-13T01:09:32.078Z,49.92
2023-02-13T01:14:34.081Z,40.47
2023-02-13T01:19:35.916Z,41.08
2023-02-13T01:24:37.757Z,39.58
2023-02-13T01:29:39.602Z,43.17
2023-02-13T01:34:41.501Z,42.20
2023-02-13T01:39:43.341Z,42.20
2023-02-13T01:44:48.080Z,47.58
2023-02-13T01:50:05.685Z,42.17
2023-02-13T01:55:09.288Z,34.15
2023-02-13T02:00:17.600Z,34.17
2023-02-13T02:05:21.884Z,33.22
2023-02-13T02:10:24.259Z,32.35
2023-02-13T02:15:27.135Z,30.95
2023-02-13T02:20:57.237Z,36.25
2023-02-13T02:26:44.163Z,34.30
2023-02-13T02:32:19.841Z,33.33
2023-02-13T02:37:52.138Z,31.73
2023-02-13T02:43:18.783Z,32.30
2023-02-13T02:49:02.818Z,32.05
2023-02-13T02:54:37.655Z,34.33
2023-02-13T03:00:15.508Z,35.97
2023-02-13T03:05:59.158Z,32.38
2023-02-13T03:11:19.701Z,29.95
2023-02-13T03:16:44.065Z,32.22
2023-02-13T03:22:21.572Z,31.90
2023-02-13T03:27:48.145Z,33.00
2023-02-13T03:33:39.473Z,26.23
2023-02-13T03:38:57.442Z,28.20
2023-02-13T03:44:23.200Z,33.03
2023-02-13T03:49:50.115Z,30.35
2023-02-13T03:55:18.651Z,31.38
2023-02-13T04:00:22.305Z,28.98
2023-02-13T04:05:28.438Z,29.80
2023-02-13T04:10:34.211Z,31.52
2023-02-13T04:16:10.320Z,30.77
2023-02-13T04:21:12.123Z,32.65
2023-02-13T04:26:18.716Z,32.17
2023-02-13T04:31:20.648Z,30.25
2023-02-13T04:36:22.571Z,30.73
2023-02-13T04:41:24.414Z,30.25
2023-02-13T04:46:26.392Z,29.48
2023-02-13T04:51:28.380Z,29.00
2023-02-13T04:56:30.235Z,29.88
2023-02-13T05:01:32.069Z,28.75
2023-02-13T05:06:33.919Z,29.80
2023-02-13T05:11:35.749Z,25.02
2023-02-13T05:16:37.601Z,26.13
2023-02-13T05:21:57.896Z,28.10
2023-02-13T05:26:59.726Z,28.75
2023-02-13T05:32:01.681Z,30.00
2023-02-13T05:37:03.606Z,27.35
2023-02-13T05:42:05.714Z,31.00
2023-02-13T05:47:07.547Z,30.10
2023-02-13T05:52:09.440Z,28.35
2023-02-13T05:57:11.339Z,30.70
2023-02-13T06:02:13.237Z,30.70
2023-02-13T06:07:15.053Z,29.08
2023-02-13T06:12:17.034Z,32.75
2023-02-13T06:17:18.879Z,35.28
2023-02-13T06:22:20.731Z,37.88
2023-02-13T06:27:22.631Z,36.47
2023-02-13T06:32:24.621Z,39.38
2023-02-13T06:37:26.442Z,38.53
2023-02-13T06:42:28.375Z,48.30
2023-02-13T06:47:30.314Z,46.78
2023-02-13T06:52:32.213Z,49.20
2023-02-13T06:57:34.660Z,55.08
2023-02-13T07:02:37.697Z,51.38
2023-02-13T07:07:41.318Z,57.95
2023-02-13T07:12:44.626Z,49.80
2023-02-13T07:17:47.613Z,53.17
2023-02-13T07:22:49.454Z,50.67
2023-02-13T07:27:51.250Z,52.35
2023-02-13T07:32:53.067Z,60.78
2023-02-13T07:37:55.403Z,63.85
2023-02-13T07:43:00.802Z,97.63
2023-02-13T07:48:02.630Z,66.15
2023-02-13T07:53:04.488Z,60.25
2023-02-13T07:58:06.334Z,65.45
2023-02-13T08:03:08.167Z,56.72
2023-02-13T08:08:10.050Z,58.08
2023-02-13T08:13:14.957Z,59.67
2023-02-13T08:18:18.860Z,63.83
2023-02-13T08:23:21.604Z,55.22
2023-02-13T08:28:23.527Z,44.33
2023-02-13T08:33:25.553Z,42.92
2023-02-13T08:38:27.403Z,37.97
2023-02-13T08:43:29.233Z,40.78
2023-02-13T08:48:31.230Z,44.22
2023-02-13T08:53:34.140Z,44.50
2023-02-13T08:58:36.041Z,36.63
2023-02-13T09:03:37.971Z,31.10
2023-02-13T09:08:39.793Z,30.70
2023-02-13T09:13:41.606Z,25.10
2023-02-13T09:18:43.417Z,22.90
2023-02-13T09:23:45.499Z,21.58
2023-02-13T09:28:47.391Z,24.50
2023-02-13T09:33:50.068Z,21.13
2023-02-13T09:38:54.340Z,22.17
2023-02-13T09:44:04.673Z,23.98
2023-02-13T09:49:19.845Z,19.23
2023-02-13T09:54:21.717Z,19.05
2023-02-13T09:59:43.293Z,23.55
2023-02-13T10:05:03.481Z,22.02
2023-02-13T10:10:11.350Z,23.10
2023-02-13T10:15:22.491Z,27.25
2023-02-13T10:20:39.773Z,22.10
2023-02-13T10:25:49.130Z,18.50
2023-02-13T10:30:55.252Z,25.45
2023-02-13T10:36:09.314Z,24.23
2023-02-13T10:41:25.836Z,23.02
2023-02-13T10:46:30.909Z,22.55
2023-02-13T10:51:40.000Z,24.75
2023-02-13T10:56:56.900Z,25.92
2023-02-13T11:02:27.217Z,25.67
2023-02-13T11:07:30.672Z,26.88
2023-02-13T11:12:34.524Z,30.38
2023-02-13T11:17:40.787Z,24.52
2023-02-13T11:22:43.071Z,25.90
2023-02-13T11:27:47.366Z,21.42
2023-02-13T11:33:06.815Z,23.00
2023-02-13T11:38:20.530Z,23.48
2023-02-13T11:43:30.236Z,22.20
2023-02-13T11:48:32.213Z,20.05
2023-02-13T11:53:40.181Z,20.70
2023-02-13T11:58:42.829Z,17.80
2023-02-13T12:03:44.773Z,18.13
2023-02-13T12:08:49.717Z,16.77
2023-02-13T12:13:52.756Z,21.67
2023-02-13T12:18:59.580Z,19.73
2023-02-13T12:24:15.586Z,19.00
2023-02-13T12:29:39.243Z,20.08
2023-02-13T12:34:58.435Z,20.85
2023-02-13T12:40:24.247Z,21.30
2023-02-13T12:45:49.091Z,21.58
2023-02-13T12:51:05.152Z,19.85
2023-02-13T12:56:15.922Z,19.83
2023-02-13T13:01:55.549Z,18.50
2023-02-13T13:07:41.995Z,19.25
2023-02-13T13:12:47.240Z,19.13
2023-02-13T13:18:17.597Z,18.65
2023-02-13T13:23:26.194Z,18.80
2023-02-13T13:28:43.718Z,18.13
2023-02-13T13:33:48.095Z,19.20
2023-02-13T13:39:21.765Z,18.83
2023-02-13T13:44:38.711Z,17.92
2023-02-13T13:49:53.906Z,16.33
2023-02-13T13:55:00.244Z,18.48
2023-02-13T14:00:14.194Z,19.92
2023-02-13T14:05:32.030Z,19.90
2023-02-13T14:10:33.943Z,20.88
2023-02-13T14:15:38.895Z,20.17
2023-02-13T14:20:44.433Z,19.67
2023-02-13T14:25:46.626Z,20.17
2023-02-13T14:30:50.132Z,18.67
2023-02-13T14:36:23.237Z,19.30
2023-02-13T14:42:01.848Z,17.42
2023-02-13T14:47:15.122Z,16.85
2023-02-13T14:52:26.534Z,17.23
2023-02-13T14:57:34.446Z,17.20
2023-02-13T15:02:44.652Z,19.42
2023-02-13T15:07:50.987Z,20.70
2023-02-13T15:13:01.563Z,18.10
2023-02-13T15:18:09.857Z,20.00
2023-02-13T15:23:32.699Z,17.85
2023-02-13T15:28:36.101Z,19.83
2023-02-13T15:33:51.088Z,18.42
2023-02-13T15:39:00.194Z,20.08
2023-02-13T15:44:03.336Z,21.05
2023-02-13T15:49:08.354Z,22.13
2023-02-13T15:54:31.187Z,21.45
2023-02-13T15:59:38.975Z,20.95
2023-02-13T16:04:42.303Z,22.83
2023-02-13T16:09:44.538Z,24.33
2023-02-13T16:14:59.956Z,25.55
2023-02-13T16:20:11.496Z,27.20
2023-02-13T16:25:13.346Z,23.58
2023-02-13T16:30:34.033Z,24.17
2023-02-13T16:35:38.339Z,26.08
2023-02-13T16:40:42.900Z,26.40
2023-02-13T16:45:44.852Z,25.05
2023-02-13T16:50:46.770Z,26.88
2023-02-13T16:55:57.764Z,27.13
2023-02-13T17:01:01.953Z,26.00
2023-02-13T17:06:04.004Z,24.85
2023-02-13T17:11:07.908Z,30.10
2023-02-13T17:16:10.232Z,30.65
2023-02-13T17:21:12.768Z,37.10
2023-02-13T17:26:14.545Z,33.20
2023-02-13T17:31:16.438Z,31.92
2023-02-13T17:36:18.387Z,31.33
2023-02-13T17:41:20.841Z,33.90
2023-02-13T17:46:22.776Z,34.63
2023-02-13T17:51:24.621Z,39.85
2023-02-13T17:56:26.459Z,41.08
2023-02-13T18:01:28.435Z,37.58
2023-02-13T18:06:30.365Z,36.45
2023-02-13T18:11:32.183Z,42.17
2023-02-13T18:16:33.962Z,38.67
2023-02-13T18:21:35.791Z,36.80
2023-02-13T18:26:37.686Z,43.70
2023-02-13T18:31:39.740Z,42.35
2023-02-13T18:36:41.576Z,45.40
2023-02-13T18:41:43.894Z,47.97
2023-02-13T18:46:45.762Z,48.15
2023-02-13T18:51:47.689Z,53.28
2023-02-13T18:56:49.957Z,56.90
2023-02-13T19:01:51.852Z,59.78
2023-02-13T19:06:53.809Z,68.75
2023-02-13T19:11:55.609Z,72.13
2023-02-13T19:16:57.422Z,72.40
2023-02-13T19:21:59.253Z,75.97
2023-02-13T19:27:01.165Z,78.47
2023-02-13T19:32:03.269Z,69.13
2023-02-13T19:37:05.270Z,63.33
2023-02-13T19:42:08.081Z,65.45
2023-02-13T19:47:13.201Z,61.78
2023-02-13T19:52:15.146Z,63.85
2023-02-13T19:57:18.442Z,58.03
2023-02-13T20:02:21.642Z,48.15
2023-02-13T20:07:23.521Z,48.15
2023-02-13T20:12:25.445Z,52.70
2023-02-13T20:17:27.390Z,56.63
2023-02-13T20:22:30.960Z,57.35
2023-02-13T20:27:32.815Z,61.90
2023-02-13T20:32:34.810Z,46.05
2023-02-13T20:37:36.720Z,55.25
2023-02-13T20:42:38.527Z,54.00
2023-02-13T20:47:42.842Z,59.95
2023-02-13T20:52:44.782Z,55.63
2023-02-13T20:57:46.672Z,51.72
2023-02-13T21:02:48.485Z,50.15
2023-02-13T21:07:50.386Z,48.33
2023-02-13T21:12:52.234Z,47.50
2023-02-13T21:17:54.177Z,44.35
2023-02-13T21:22:56.632Z,46.58
2023-02-13T21:27:59.110Z,48.45
2023-02-13T21:33:00.916Z,51.45
2023-02-13T21:38:02.727Z,47.67
2023-02-13T21:43:04.616Z,47.25
2023-02-13T21:48:06.577Z,53.28
2023-02-13T21:53:08.413Z,49.38
2023-02-13T21:58:10.286Z,43.50
2023-02-13T22:03:12.185Z,45.95
2023-02-13T22:08:14.035Z,48.40
2023-02-13T22:13:15.853Z,50.85
2023-02-13T22:18:17.661Z,47.05
2023-02-13T22:23:19.511Z,47.53
2023-02-13T22:28:21.323Z,40.05
2023-02-13T22:33:23.360Z,41.05
2023-02-13T22:38:25.318Z,45.33
2023-02-13T22:43:27.204Z,42.03
2023-02-13T22:48:29.057Z,37.97
2023-02-13T22:53:31.690Z,42.22
2023-02-13T22:58:34.067Z,44.20
2023-02-13T23:03:35.879Z,43.38
2023-02-13T23:08:38.031Z,40.17
2023-02-13T23:13:39.845Z,43.08
2023-02-13T23:18:42.287Z,44.63
2023-02-13T23:23:44.112Z,46.85
2023-02-13T23:28:46.060Z,44.20
2023-02-13T23:33:47.870Z,42.33
2023-02-13T23:38:49.687Z,38.65
2023-02-13T23:43:51.536Z,35.33
2023-02-13T23:48:53.401Z,38.28
2023-02-13T23:53:57.299Z,37.83
2023-02-13T23:58:59.265Z,45.80
